createdAt,value
2023-05-08T00:00:13.583Z,3.83
2023-05-08T00:01:16.315Z,3.33
2023-05-08T00:02:18.025Z,3.50
2023-05-08T00:03:19.744Z,3.63
2023-05-08T00:04:21.590Z,3.40
2023-05-08T00:05:23.346Z,4.22
2023-05-08T00:06:24.957Z,3.15
2023-05-08T00:07:26.497Z,3.60
2023-05-08T00:08:28.329Z,3.20
2023-05-08T00:09:29.936Z,3.67
2023-05-08T00:10:31.535Z,3.47
2023-05-08T00:11:33.130Z,3.40
2023-05-08T00:12:34.711Z,3.47
2023-05-08T00:13:36.344Z,3.97
2023-05-08T00:14:37.953Z,3.33
2023-05-08T00:15:39.544Z,4.78
2023-05-08T00:16:41.170Z,3.60
2023-05-08T00:17:42.771Z,3.63
2023-05-08T00:18:44.541Z,3.58
2023-05-08T00:19:46.220Z,3.30
2023-05-08T00:20:47.825Z,3.50
2023-05-08T00:21:49.469Z,4.00
2023-05-08T00:22:51.053Z,3.38
2023-05-08T00:23:53.023Z,3.85
2023-05-08T00:24:54.587Z,3.92
2023-05-08T00:25:56.376Z,3.70
2023-05-08T00:26:58.007Z,3.47
2023-05-08T00:28:00.269Z,4.23
2023-05-08T00:29:01.906Z,3.58
2023-05-08T00:30:03.738Z,3.75
2023-05-08T00:31:05.379Z,3.90
2023-05-08T00:32:07.848Z,3.83
2023-05-08T00:33:09.831Z,3.50
2023-05-08T00:34:11.601Z,3.72
2023-05-08T00:35:13.175Z,3.70
2023-05-08T00:36:15.918Z,3.83
2023-05-08T00:37:17.688Z,4.13
2023-05-08T00:38:19.341Z,3.63
2023-05-08T00:39:20.926Z,3.85
2023-05-08T00:40:22.638Z,3.53
2023-05-08T00:41:24.266Z,4.03
2023-05-08T00:42:25.936Z,3.90
2023-05-08T00:43:30.715Z,3.63
2023-05-08T00:44:32.572Z,3.72
2023-05-08T00:45:37.945Z,3.72
2023-05-08T00:46:39.603Z,3.30
2023-05-08T00:47:41.346Z,4.05
2023-05-08T00:48:43.122Z,3.93
2023-05-08T00:49:44.720Z,3.60
2023-05-08T00:50:46.953Z,3.58
2023-05-08T00:51:49.618Z,4.10
2023-05-08T00:52:51.594Z,4.10
2023-05-08T00:53:53.205Z,3.78
2023-05-08T00:54:54.854Z,3.60
2023-05-08T00:55:56.613Z,4.05
2023-05-08T00:56:58.319Z,3.67
2023-05-08T00:58:00.390Z,4.20
2023-05-08T00:59:02.115Z,3.70
2023-05-08T01:00:04.711Z,3.53
2023-05-08T01:01:06.401Z,3.60
2023-05-08T01:02:08.777Z,3.55
2023-05-08T01:03:10.501Z,3.63
2023-05-08T01:04:12.230Z,4.43
2023-05-08T01:05:13.837Z,3.55
2023-05-08T01:06:15.512Z,3.35
2023-05-08T01:07:17.769Z,3.88
2023-05-08T01:08:21.026Z,4.10
2023-05-08T01:09:22.670Z,3.97
2023-05-08T01:10:24.379Z,3.80
2023-05-08T01:11:29.551Z,3.70
2023-05-08T01:12:41.092Z,4.05
2023-05-08T01:14:01.025Z,3.22
2023-05-08T01:15:08.651Z,3.47
2023-05-08T01:16:17.199Z,3.20
2023-05-08T01:17:33.347Z,3.75
2023-05-08T01:18:42.637Z,3.38
2023-05-08T01:20:06.460Z,3.70
2023-05-08T01:21:13.446Z,3.63
2023-05-08T01:22:39.535Z,4.68
2023-05-08T01:23:57.061Z,4.10
2023-05-08T01:25:10.494Z,3.85
2023-05-08T01:26:34.016Z,3.33
2023-05-08T01:27:55.953Z,4.10
2023-05-08T01:29:25.642Z,4.10
2023-05-08T01:30:39.072Z,3.50
2023-05-08T01:31:43.640Z,3.47
2023-05-08T01:33:27.399Z,3.60
2023-05-08T01:34:32.229Z,3.10
2023-05-08T01:35:39.884Z,3.95
2023-05-08T01:36:57.060Z,4.10
2023-05-08T01:38:13.226Z,3.75
2023-05-08T01:39:30.801Z,3.80
2023-05-08T01:40:41.007Z,4.22
2023-05-08T01:41:43.493Z,3.42
2023-05-08T01:42:57.051Z,3.80
2023-05-08T01:44:18.858Z,3.60
2023-05-08T01:45:29.116Z,3.80
2023-05-08T01:46:32.538Z,3.73
2023-05-08T01:47:36.304Z,3.80
2023-05-08T01:48:41.207Z,3.78
2023-05-08T01:49:47.847Z,3.63
2023-05-08T01:50:51.025Z,3.80
2023-05-08T01:52:04.627Z,3.80
2023-05-08T01:53:20.939Z,3.38
2023-05-08T01:54:23.982Z,3.55
2023-05-08T01:55:27.439Z,4.00
2023-05-08T01:56:29.718Z,3.72
2023-05-08T01:57:33.726Z,3.80
2023-05-08T01:58:35.535Z,3.60
2023-05-08T01:59:37.184Z,4.30
2023-05-08T02:00:39.630Z,4.20
2023-05-08T02:01:41.336Z,3.78
2023-05-08T02:02:43.129Z,4.07
2023-05-08T02:03:44.830Z,4.20
2023-05-08T02:04:46.464Z,4.55
2023-05-08T02:05:48.107Z,3.90
2023-05-08T02:06:51.202Z,4.22
2023-05-08T02:07:53.203Z,3.87
2023-05-08T02:08:55.081Z,4.10
2023-05-08T02:09:56.698Z,3.55
2023-05-08T02:10:58.291Z,4.00
2023-05-08T02:11:59.943Z,4.47
2023-05-08T02:13:01.802Z,4.28
2023-05-08T02:14:03.459Z,3.83
2023-05-08T02:15:05.712Z,4.07
2023-05-08T02:16:08.600Z,4.10
2023-05-08T02:17:10.173Z,4.05
2023-05-08T02:18:11.810Z,4.03
2023-05-08T02:19:13.451Z,3.80
2023-05-08T02:20:15.348Z,3.72
2023-05-08T02:21:17.075Z,3.55
2023-05-08T02:22:18.676Z,3.85
2023-05-08T02:23:22.576Z,4.00
2023-05-08T02:24:24.383Z,4.30
2023-05-08T02:25:26.037Z,4.05
2023-05-08T02:26:27.683Z,4.05
2023-05-08T02:27:29.347Z,3.95
2023-05-08T02:28:31.008Z,4.23
2023-05-08T02:29:32.673Z,4.03
2023-05-08T02:30:34.309Z,4.20
2023-05-08T02:31:36.135Z,4.13
2023-05-08T02:32:37.789Z,4.07
2023-05-08T02:33:40.462Z,3.80
2023-05-08T02:34:48.188Z,4.05
2023-05-08T02:36:00.764Z,3.92
2023-05-08T02:37:02.388Z,4.25
2023-05-08T02:38:04.003Z,4.60
2023-05-08T02:39:05.689Z,3.70
2023-05-08T02:40:07.681Z,4.13
2023-05-08T02:41:09.277Z,4.55
2023-05-08T02:42:11.006Z,4.22
2023-05-08T02:43:12.648Z,3.80
2023-05-08T02:44:14.248Z,4.20
2023-05-08T02:45:15.853Z,3.92
2023-05-08T02:46:26.521Z,4.75
2023-05-08T02:47:50.352Z,4.93
2023-05-08T02:49:00.287Z,4.10
2023-05-08T02:50:23.616Z,3.87
2023-05-08T02:51:31.274Z,4.10
2023-05-08T02:52:35.452Z,4.30
2023-05-08T02:53:44.140Z,4.35
2023-05-08T02:55:01.465Z,4.60
2023-05-08T02:56:07.859Z,4.53
2023-05-08T02:57:34.180Z,3.95
2023-05-08T02:58:43.544Z,4.20
2023-05-08T03:00:04.660Z,4.28
2023-05-08T03:01:08.952Z,3.95
2023-05-08T03:02:32.366Z,4.23
2023-05-08T03:03:42.325Z,4.07
2023-05-08T03:04:51.646Z,3.80
2023-05-08T03:05:57.869Z,4.43
2023-05-08T03:06:59.558Z,4.00
2023-05-08T03:08:04.170Z,4.40
2023-05-08T03:09:05.909Z,4.10
2023-05-08T03:10:10.707Z,4.22
2023-05-08T03:11:15.303Z,4.38
2023-05-08T03:12:20.919Z,4.25
2023-05-08T03:13:22.559Z,4.17
2023-05-08T03:14:24.181Z,5.10
2023-05-08T03:15:38.622Z,4.80
2023-05-08T03:16:41.553Z,5.05
2023-05-08T03:17:43.351Z,5.15
2023-05-08T03:18:51.651Z,4.72
2023-05-08T03:19:55.598Z,4.47
2023-05-08T03:20:58.335Z,4.82
2023-05-08T03:21:59.940Z,4.80
2023-05-08T03:23:01.740Z,5.22
2023-05-08T03:24:03.438Z,5.37
2023-05-08T03:25:05.476Z,5.80
2023-05-08T03:26:07.170Z,5.05
2023-05-08T03:27:08.913Z,5.03
2023-05-08T03:28:10.757Z,5.57
2023-05-08T03:29:13.552Z,6.32
2023-05-08T03:30:15.333Z,6.00
2023-05-08T03:31:19.164Z,6.65
2023-05-08T03:32:21.306Z,5.68
2023-05-08T03:33:22.950Z,6.07
2023-05-08T03:34:24.580Z,5.50
2023-05-08T03:35:26.194Z,5.82
2023-05-08T03:36:28.955Z,5.93
2023-05-08T03:37:30.568Z,5.75
2023-05-08T03:38:32.410Z,5.90
2023-05-08T03:39:34.055Z,6.57
2023-05-08T03:40:44.710Z,6.07
2023-05-08T03:41:46.458Z,5.80
2023-05-08T03:42:48.027Z,6.43
2023-05-08T03:43:49.605Z,6.50
2023-05-08T03:44:51.782Z,6.40
2023-05-08T03:45:53.418Z,7.13
2023-05-08T03:46:56.078Z,6.55
2023-05-08T03:47:57.865Z,6.78
2023-05-08T03:49:00.468Z,6.35
2023-05-08T03:50:02.101Z,6.68
2023-05-08T03:51:04.291Z,6.88
2023-05-08T03:52:05.895Z,5.97
2023-05-08T03:53:07.547Z,6.72
2023-05-08T03:54:09.185Z,7.78
2023-05-08T03:55:11.226Z,7.60
2023-05-08T03:56:13.346Z,7.30
2023-05-08T03:57:15.020Z,7.40
2023-05-08T03:58:41.329Z,7.57
2023-05-08T03:59:47.238Z,7.30
2023-05-08T04:01:09.316Z,6.97
2023-05-08T04:02:29.887Z,7.25
2023-05-08T04:03:34.778Z,7.25
2023-05-08T04:04:40.833Z,6.85
2023-05-08T04:05:51.033Z,7.10
2023-05-08T04:07:00.865Z,7.13
2023-05-08T04:08:16.368Z,6.85
2023-05-08T04:09:31.023Z,7.20
2023-05-08T04:10:36.939Z,6.75
2023-05-08T04:11:42.995Z,6.72
2023-05-08T04:12:53.784Z,6.22
2023-05-08T04:13:58.939Z,6.53
2023-05-08T04:15:05.029Z,6.40
2023-05-08T04:16:09.901Z,6.25
2023-05-08T04:17:12.983Z,7.30
2023-05-08T04:18:18.161Z,7.03
2023-05-08T04:19:23.563Z,6.43
2023-05-08T04:20:27.358Z,7.03
2023-05-08T04:21:29.428Z,6.45
2023-05-08T04:22:34.012Z,7.13
2023-05-08T04:23:35.856Z,7.10
2023-05-08T04:24:40.948Z,6.82
2023-05-08T04:25:42.547Z,6.60
2023-05-08T04:26:44.684Z,7.70
2023-05-08T04:27:46.631Z,7.18
2023-05-08T04:28:48.330Z,9.50
2023-05-08T04:29:49.921Z,8.80
2023-05-08T04:30:52.091Z,8.05
2023-05-08T04:31:53.688Z,7.75
2023-05-08T04:32:55.928Z,8.18
2023-05-08T04:33:58.202Z,7.75
2023-05-08T04:34:59.764Z,7.88
2023-05-08T04:36:02.621Z,7.78
2023-05-08T04:37:06.569Z,7.03
2023-05-08T04:38:08.200Z,7.43
2023-05-08T04:39:09.826Z,7.80
2023-05-08T04:40:11.781Z,7.45
2023-05-08T04:41:13.465Z,7.43
2023-05-08T04:42:15.085Z,8.10
2023-05-08T04:43:16.731Z,7.95
2023-05-08T04:44:18.329Z,7.60
2023-05-08T04:45:20.215Z,8.07
2023-05-08T04:46:21.907Z,7.35
2023-05-08T04:47:24.326Z,7.60
2023-05-08T04:48:26.185Z,7.18
2023-05-08T04:49:27.795Z,8.00
2023-05-08T04:50:29.445Z,7.90
2023-05-08T04:51:32.015Z,8.00
2023-05-08T04:52:33.657Z,8.48
2023-05-08T04:53:35.323Z,8.07
2023-05-08T04:54:37.086Z,8.07
2023-05-08T04:55:38.659Z,8.13
2023-05-08T04:56:40.365Z,8.27
2023-05-08T04:57:41.972Z,7.95
2023-05-08T04:58:43.693Z,7.47
2023-05-08T04:59:45.408Z,8.00
2023-05-08T05:00:47.070Z,7.78
2023-05-08T05:01:48.742Z,7.57
2023-05-08T05:02:50.413Z,7.70
2023-05-08T05:03:52.055Z,7.70
2023-05-08T05:04:53.682Z,7.30
2023-05-08T05:05:59.586Z,7.68
2023-05-08T05:07:01.664Z,7.45
2023-05-08T05:08:04.295Z,7.93
2023-05-08T05:09:06.507Z,8.60
2023-05-08T05:10:08.380Z,8.00
2023-05-08T05:11:09.984Z,7.88
2023-05-08T05:12:11.571Z,8.40
2023-05-08T05:13:13.196Z,11.55
2023-05-08T05:14:14.887Z,15.55
2023-05-08T05:15:16.497Z,9.50
2023-05-08T05:16:18.208Z,7.40
2023-05-08T05:17:19.891Z,8.77
2023-05-08T05:18:21.586Z,8.05
2023-05-08T05:19:23.183Z,8.07
2023-05-08T05:20:24.773Z,7.40
2023-05-08T05:21:28.031Z,8.23
2023-05-08T05:22:29.689Z,11.50
2023-05-08T05:23:31.424Z,8.77
2023-05-08T05:24:33.490Z,7.25
2023-05-08T05:25:35.216Z,8.40
2023-05-08T05:26:37.323Z,8.48
2023-05-08T05:27:38.976Z,8.23
2023-05-08T05:28:40.550Z,8.63
2023-05-08T05:29:42.174Z,7.60
2023-05-08T05:30:46.508Z,8.13
2023-05-08T05:31:48.298Z,8.23
2023-05-08T05:32:49.904Z,8.27
2023-05-08T05:33:51.844Z,8.00
2023-05-08T05:34:54.154Z,7.85
2023-05-08T05:35:56.256Z,9.13
2023-05-08T05:36:57.836Z,8.63
2023-05-08T05:37:59.410Z,9.00
2023-05-08T05:39:01.062Z,7.90
2023-05-08T05:40:03.223Z,8.43
2023-05-08T05:41:04.846Z,8.60
2023-05-08T05:42:06.438Z,8.27
2023-05-08T05:43:08.039Z,7.70
2023-05-08T05:44:09.767Z,8.93
2023-05-08T05:45:11.768Z,8.70
2023-05-08T05:46:13.563Z,8.43
2023-05-08T05:47:15.264Z,9.20
2023-05-08T05:48:16.977Z,8.82
2023-05-08T05:49:18.642Z,8.95
2023-05-08T05:50:21.528Z,8.82
2023-05-08T05:51:23.281Z,9.47
2023-05-08T05:52:24.923Z,8.68
2023-05-08T05:53:26.625Z,8.90
2023-05-08T05:54:28.241Z,8.95
2023-05-08T05:55:30.003Z,9.52
2023-05-08T05:56:31.620Z,9.02
2023-05-08T05:57:33.794Z,9.55
2023-05-08T05:58:35.766Z,8.73
2023-05-08T05:59:37.484Z,8.70
2023-05-08T06:00:39.121Z,9.30
2023-05-08T06:01:40.728Z,8.77
2023-05-08T06:02:42.887Z,10.18
2023-05-08T06:03:44.839Z,9.85
2023-05-08T06:04:46.781Z,9.20
2023-05-08T06:05:48.465Z,8.15
2023-05-08T06:06:50.043Z,9.45
2023-05-08T06:07:51.740Z,9.05
2023-05-08T06:08:54.376Z,9.25
2023-05-08T06:09:56.289Z,8.85
2023-05-08T06:10:58.812Z,9.13
2023-05-08T06:12:00.584Z,8.90
2023-05-08T06:13:02.360Z,52.28
2023-05-08T06:14:03.956Z,10.93
2023-05-08T06:15:06.250Z,8.35
2023-05-08T06:16:08.220Z,9.23
2023-05-08T06:17:09.990Z,9.15
2023-05-08T06:18:11.757Z,10.60
2023-05-08T06:19:13.424Z,8.90
2023-05-08T06:20:14.991Z,9.00
2023-05-08T06:21:17.004Z,9.05
2023-05-08T06:22:18.705Z,8.90
2023-05-08T06:23:20.519Z,8.70
2023-05-08T06:24:22.267Z,8.80
2023-05-08T06:25:24.229Z,8.40
2023-05-08T06:26:26.309Z,8.68
2023-05-08T06:27:27.925Z,8.77
2023-05-08T06:28:29.517Z,8.60
2023-05-08T06:29:31.177Z,8.40
2023-05-08T06:30:32.817Z,8.27
2023-05-08T06:31:34.635Z,8.98
2023-05-08T06:32:36.651Z,8.90
2023-05-08T06:33:38.720Z,7.38
2023-05-08T06:34:40.304Z,7.60
2023-05-08T06:35:42.289Z,7.40
2023-05-08T06:36:43.944Z,6.45
2023-05-08T06:37:46.637Z,7.10
2023-05-08T06:38:48.244Z,7.57
2023-05-08T06:39:57.285Z,6.65
2023-05-08T06:41:05.865Z,7.93
2023-05-08T06:42:08.014Z,9.43
2023-05-08T06:43:10.556Z,8.40
2023-05-08T06:44:12.176Z,8.50
2023-05-08T06:45:14.021Z,9.48
2023-05-08T06:46:16.140Z,7.65
2023-05-08T06:47:17.830Z,8.40
2023-05-08T06:48:19.491Z,8.55
2023-05-08T06:49:21.152Z,8.50
2023-05-08T06:50:22.760Z,8.27
2023-05-08T06:51:24.403Z,8.38
2023-05-08T06:52:26.055Z,8.57
2023-05-08T06:53:27.728Z,7.20
2023-05-08T06:54:29.328Z,8.30
2023-05-08T06:55:31.299Z,7.35
2023-05-08T06:56:33.164Z,7.60
2023-05-08T06:57:35.042Z,7.13
2023-05-08T06:58:36.656Z,6.68
2023-05-08T06:59:38.252Z,7.10
2023-05-08T07:00:39.856Z,8.13
2023-05-08T07:01:41.885Z,8.07
2023-05-08T07:02:44.496Z,8.40
2023-05-08T07:03:46.529Z,7.77
2023-05-08T07:04:48.196Z,7.45
2023-05-08T07:05:49.908Z,6.25
2023-05-08T07:06:51.953Z,6.07
2023-05-08T07:07:54.374Z,7.15
2023-05-08T07:08:55.988Z,7.68
2023-05-08T07:09:57.616Z,7.07
2023-05-08T07:10:59.219Z,6.32
2023-05-08T07:12:00.946Z,4.30
2023-05-08T07:13:03.305Z,4.15
2023-05-08T07:14:05.028Z,4.83
2023-05-08T07:15:40.910Z,3.92
2023-05-08T07:16:29.020Z,3.67
2023-05-08T07:17:31.983Z,3.38
2023-05-08T07:18:33.653Z,3.85
2023-05-08T07:19:38.535Z,3.67
2023-05-08T07:20:40.165Z,4.60
2023-05-08T07:21:41.860Z,4.80
2023-05-08T07:22:43.538Z,4.47
2023-05-08T07:23:45.164Z,3.78
2023-05-08T07:24:47.113Z,3.80
2023-05-08T07:25:48.732Z,5.00
2023-05-08T07:26:50.415Z,3.72
2023-05-08T07:27:52.113Z,3.85
2023-05-08T07:28:56.423Z,4.03
2023-05-08T07:29:58.885Z,4.53
2023-05-08T07:31:00.506Z,5.78
2023-05-08T07:32:02.487Z,4.70
2023-05-08T07:33:04.194Z,4.10
2023-05-08T07:34:07.338Z,4.43
2023-05-08T07:35:11.511Z,3.70
2023-05-08T07:36:13.477Z,4.28
2023-05-08T07:37:15.218Z,3.97
2023-05-08T07:38:16.988Z,4.20
2023-05-08T07:39:18.603Z,4.00
2023-05-08T07:40:20.228Z,4.20
2023-05-08T07:41:21.815Z,4.35
2023-05-08T07:42:23.435Z,4.15
2023-05-08T07:43:25.113Z,3.97
2023-05-08T07:44:26.760Z,6.00
2023-05-08T07:45:28.461Z,3.67
2023-05-08T07:46:30.286Z,5.22
2023-05-08T07:47:32.527Z,4.18
2023-05-08T07:48:34.560Z,3.58
2023-05-08T07:49:36.821Z,3.30
2023-05-08T07:50:38.409Z,3.58
2023-05-08T07:51:40.361Z,3.50
2023-05-08T07:52:42.055Z,5.65
2023-05-08T07:53:43.750Z,3.22
2023-05-08T07:54:46.114Z,3.00
2023-05-08T07:55:47.883Z,2.47
2023-05-08T07:56:49.475Z,3.08
2023-05-08T07:57:51.116Z,3.80
2023-05-08T07:58:52.770Z,3.13
2023-05-08T07:59:54.373Z,4.28
2023-05-08T08:00:56.387Z,4.03
2023-05-08T08:01:58.088Z,4.18
2023-05-08T08:02:59.808Z,3.88
2023-05-08T08:04:01.606Z,3.88
2023-05-08T08:05:03.453Z,4.30
2023-05-08T08:06:05.179Z,4.37
2023-05-08T08:07:06.821Z,4.18
2023-05-08T08:08:08.664Z,3.53
2023-05-08T08:09:10.427Z,3.25
2023-05-08T08:10:12.579Z,3.83
2023-05-08T08:11:14.189Z,4.20
2023-05-08T08:12:15.814Z,4.28
2023-05-08T08:13:17.763Z,4.88
2023-05-08T08:14:19.446Z,4.97
2023-05-08T08:15:21.164Z,4.53
2023-05-08T08:16:22.921Z,4.57
2023-05-08T08:17:26.800Z,4.43
2023-05-08T08:18:31.011Z,3.42
2023-05-08T08:19:32.592Z,3.60
2023-05-08T08:20:34.231Z,3.30
2023-05-08T08:21:35.826Z,3.33
2023-05-08T08:22:37.593Z,3.50
2023-05-08T08:23:39.184Z,3.10
2023-05-08T08:24:40.843Z,2.70
2023-05-08T08:25:42.727Z,2.78
2023-05-08T08:26:44.300Z,2.20
2023-05-08T08:27:46.379Z,2.30
2023-05-08T08:28:47.982Z,2.22
2023-05-08T08:29:51.151Z,2.28
2023-05-08T08:30:54.562Z,2.50
2023-05-08T08:31:56.486Z,2.42
2023-05-08T08:33:02.181Z,2.30
2023-05-08T08:34:04.161Z,2.80
2023-05-08T08:35:06.373Z,2.58
2023-05-08T08:36:13.532Z,2.20
2023-05-08T08:37:15.173Z,1.80
2023-05-08T08:38:17.037Z,1.77
2023-05-08T08:39:18.682Z,1.73
2023-05-08T08:40:20.429Z,1.50
2023-05-08T08:41:23.377Z,1.42
2023-05-08T08:42:25.256Z,1.90
2023-05-08T08:43:26.932Z,1.80
2023-05-08T08:44:28.599Z,1.50
2023-05-08T08:45:31.267Z,1.80
2023-05-08T08:46:35.753Z,1.90
2023-05-08T08:47:37.938Z,1.40
2023-05-08T08:48:39.873Z,1.65
2023-05-08T08:49:43.740Z,1.48
2023-05-08T08:50:45.320Z,1.60
2023-05-08T08:51:52.554Z,1.42
2023-05-08T08:53:17.215Z,1.83
2023-05-08T08:54:21.989Z,1.17
2023-05-08T08:55:23.640Z,1.20
2023-05-08T08:56:25.373Z,1.20
2023-05-08T08:57:28.071Z,1.20
2023-05-08T08:58:38.645Z,1.20
2023-05-08T08:59:40.690Z,1.75
2023-05-08T09:00:42.770Z,2.25
2023-05-08T09:01:45.470Z,1.35
2023-05-08T09:02:47.222Z,1.17
2023-05-08T09:03:49.965Z,1.73
2023-05-08T09:04:51.776Z,1.20
2023-05-08T09:05:53.851Z,1.48
2023-05-08T09:06:56.332Z,1.23
2023-05-08T09:07:58.218Z,1.30
2023-05-08T09:08:59.776Z,1.03
2023-05-08T09:10:01.337Z,0.98
2023-05-08T09:11:03.338Z,1.50
2023-05-08T09:12:05.726Z,1.00
2023-05-08T09:13:07.380Z,1.10
2023-05-08T09:14:09.762Z,0.93
2023-05-08T09:15:11.593Z,0.90
2023-05-08T09:16:13.507Z,1.10
2023-05-08T09:17:15.157Z,0.90
2023-05-08T09:18:17.564Z,0.85
2023-05-08T09:19:20.400Z,0.70
2023-05-08T09:20:24.075Z,0.90
2023-05-08T09:21:25.698Z,0.80
2023-05-08T09:22:27.461Z,1.00
2023-05-08T09:23:29.133Z,1.20
2023-05-08T09:24:57.738Z,1.13
2023-05-08T09:25:59.324Z,1.10
2023-05-08T09:27:00.925Z,1.45
2023-05-08T09:28:25.303Z,1.17
2023-05-08T09:29:26.898Z,1.00
2023-05-08T09:30:28.526Z,1.50
2023-05-08T09:31:36.876Z,1.40
2023-05-08T09:32:40.016Z,1.10
2023-05-08T09:33:44.430Z,1.00
2023-05-08T09:34:46.503Z,0.80
2023-05-08T09:35:50.716Z,0.52
2023-05-08T09:36:52.326Z,0.60
2023-05-08T09:37:55.541Z,0.70
2023-05-08T09:38:59.010Z,0.93
2023-05-08T09:40:16.672Z,1.10
2023-05-08T09:41:18.263Z,0.63
2023-05-08T09:42:19.934Z,0.60
2023-05-08T09:43:21.570Z,0.60
2023-05-08T09:44:23.227Z,0.60
2023-05-08T09:45:29.544Z,0.88
2023-05-08T09:46:31.556Z,0.50
2023-05-08T09:47:33.171Z,0.73
2023-05-08T09:48:38.466Z,0.70
2023-05-08T09:49:40.790Z,0.70
2023-05-08T09:50:43.615Z,0.60
2023-05-08T09:51:52.880Z,0.60
2023-05-08T09:52:54.504Z,0.82
2023-05-08T09:53:57.428Z,0.52
2023-05-08T09:55:07.135Z,0.52
2023-05-08T09:56:08.749Z,0.70
2023-05-08T09:57:13.898Z,0.70
2023-05-08T09:58:15.621Z,0.50
2023-05-08T09:59:27.449Z,0.70
2023-05-08T10:00:29.526Z,0.60
2023-05-08T10:01:35.673Z,0.70
2023-05-08T10:02:38.681Z,0.67
2023-05-08T10:03:50.059Z,0.80
2023-05-08T10:04:51.918Z,0.43
2023-05-08T10:05:53.625Z,0.70
2023-05-08T10:06:58.841Z,1.08
2023-05-08T10:08:23.302Z,1.20
2023-05-08T10:09:26.148Z,1.27
2023-05-08T10:10:30.937Z,1.42
2023-05-08T10:11:32.621Z,1.25
2023-05-08T10:12:34.313Z,1.40
2023-05-08T10:13:35.983Z,1.27
2023-05-08T10:14:37.581Z,1.20
2023-05-08T10:15:39.276Z,1.20
2023-05-08T10:16:45.494Z,1.42
2023-05-08T10:18:02.269Z,1.40
2023-05-08T10:19:05.970Z,1.38
2023-05-08T10:20:08.294Z,1.10
2023-05-08T10:21:09.916Z,1.02
2023-05-08T10:22:11.676Z,1.15
2023-05-08T10:23:17.614Z,1.00
2023-05-08T10:24:20.025Z,0.60
2023-05-08T10:25:21.639Z,0.90
2023-05-08T10:26:27.359Z,0.60
2023-05-08T10:27:34.688Z,0.60
2023-05-08T10:28:59.929Z,0.95
2023-05-08T10:30:04.183Z,0.88
2023-05-08T10:31:05.883Z,0.47
2023-05-08T10:32:11.908Z,0.40
2023-05-08T10:33:15.574Z,0.45
2023-05-08T10:34:20.859Z,0.50
2023-05-08T10:35:22.969Z,0.50
2023-05-08T10:36:24.941Z,0.50
2023-05-08T10:37:27.443Z,0.45
2023-05-08T10:38:29.055Z,0.45
2023-05-08T10:39:30.847Z,0.57
2023-05-08T10:40:32.545Z,0.50
2023-05-08T10:41:34.095Z,0.40
2023-05-08T10:42:35.931Z,0.45
2023-05-08T10:43:37.520Z,0.52
2023-05-08T10:44:39.190Z,0.40
2023-05-08T10:45:40.790Z,0.47
2023-05-08T10:47:01.937Z,0.32
2023-05-08T10:48:45.862Z,0.40
2023-05-08T10:50:27.426Z,0.20
2023-05-08T10:51:54.765Z,0.20
2023-05-08T10:53:13.870Z,0.30
2023-05-08T10:54:42.523Z,0.40
2023-05-08T10:55:46.254Z,0.60
2023-05-08T10:56:48.795Z,0.30
2023-05-08T10:58:10.803Z,0.32
2023-05-08T10:59:18.670Z,0.30
2023-05-08T11:00:20.301Z,0.30
2023-05-08T11:01:21.927Z,0.30
2023-05-08T11:02:31.639Z,0.30
2023-05-08T11:03:38.359Z,0.20
2023-05-08T11:04:40.544Z,0.30
2023-05-08T11:05:48.810Z,0.22
2023-05-08T11:06:53.069Z,0.13
2023-05-08T11:07:56.548Z,0.30
2023-05-08T11:09:00.424Z,0.20
2023-05-08T11:10:13.477Z,0.30
2023-05-08T11:11:28.326Z,8.85
2023-05-08T11:12:31.305Z,1.05
2023-05-08T11:13:41.518Z,0.38
2023-05-08T11:14:43.397Z,0.20
2023-05-08T11:15:50.112Z,0.77
2023-05-08T11:16:54.975Z,0.60
2023-05-08T11:17:56.878Z,0.30
2023-05-08T11:19:17.743Z,0.22
2023-05-08T11:20:23.714Z,0.28
2023-05-08T11:21:25.440Z,0.50
2023-05-08T11:22:34.795Z,0.20
2023-05-08T11:23:36.726Z,0.30
2023-05-08T11:24:39.124Z,0.50
2023-05-08T11:25:44.274Z,0.30
2023-05-08T11:26:48.846Z,0.40
2023-05-08T11:27:50.511Z,0.50
2023-05-08T11:28:58.432Z,0.22
2023-05-08T11:30:24.350Z,0.30
2023-05-08T11:31:45.860Z,0.30
2023-05-08T11:33:19.937Z,0.30
2023-05-08T11:34:48.810Z,0.20
2023-05-08T11:36:15.377Z,0.15
2023-05-08T11:37:18.143Z,0.30
2023-05-08T11:38:21.670Z,0.38
2023-05-08T11:39:23.368Z,0.20
2023-05-08T11:40:54.278Z,0.15
2023-05-08T11:41:56.071Z,0.30
2023-05-08T11:42:57.757Z,0.20
2023-05-08T11:44:05.204Z,0.20
2023-05-08T11:45:13.619Z,0.30
2023-05-08T11:46:16.739Z,0.30
2023-05-08T11:47:18.864Z,0.20
2023-05-08T11:48:20.790Z,0.30
2023-05-08T11:49:27.076Z,0.20
2023-05-08T11:50:30.936Z,0.28
2023-05-08T11:51:33.228Z,0.20
2023-05-08T11:52:36.012Z,0.60
2023-05-08T11:53:37.789Z,0.20
2023-05-08T11:54:39.430Z,0.20
2023-05-08T11:55:41.012Z,0.30
2023-05-08T11:56:42.788Z,0.20
2023-05-08T11:57:44.400Z,0.20
2023-05-08T11:58:46.032Z,0.40
2023-05-08T11:59:51.449Z,0.40
2023-05-08T12:00:53.307Z,0.40
2023-05-08T12:02:59.637Z,0.30
2023-05-08T12:04:08.668Z,0.20
2023-05-08T12:05:11.022Z,0.40
2023-05-08T12:06:12.938Z,0.17
2023-05-08T12:07:15.886Z,0.22
2023-05-08T12:08:18.183Z,0.20
2023-05-08T12:09:20.628Z,8.15
2023-05-08T12:10:22.400Z,0.40
2023-05-08T12:11:26.797Z,0.25
2023-05-08T12:12:38.921Z,0.30
2023-05-08T12:13:40.588Z,0.20
2023-05-08T12:14:42.182Z,0.10
2023-05-08T12:15:44.517Z,0.20
2023-05-08T12:16:46.168Z,0.20
2023-05-08T12:17:47.819Z,0.25
2023-05-08T12:18:50.408Z,0.60
2023-05-08T12:19:55.024Z,0.43
2023-05-08T12:20:57.549Z,0.28
2023-05-08T12:21:59.148Z,0.73
2023-05-08T12:23:02.576Z,0.13
2023-05-08T12:24:09.049Z,0.20
2023-05-08T12:25:11.947Z,0.20
2023-05-08T12:26:13.901Z,0.17
2023-05-08T12:27:15.516Z,0.20
2023-05-08T12:28:17.190Z,0.28
2023-05-08T12:29:19.457Z,0.13
2023-05-08T12:30:21.131Z,0.20
2023-05-08T12:31:22.852Z,0.20
2023-05-08T12:32:24.635Z,0.10
2023-05-08T12:33:27.170Z,0.35
2023-05-08T12:34:28.849Z,0.20
2023-05-08T12:35:30.661Z,0.13
2023-05-08T12:36:36.102Z,0.30
2023-05-08T12:37:37.982Z,0.30
2023-05-08T12:38:39.615Z,0.20
2023-05-08T12:39:44.202Z,0.22
2023-05-08T12:40:47.748Z,0.20
2023-05-08T12:41:50.208Z,0.10
2023-05-08T12:42:51.849Z,0.20
2023-05-08T12:43:53.488Z,0.30
2023-05-08T12:44:55.162Z,0.50
2023-05-08T12:45:56.854Z,0.38
2023-05-08T12:46:58.875Z,0.17
2023-05-08T12:48:02.242Z,0.20
2023-05-08T12:49:07.258Z,0.10
2023-05-08T12:50:10.250Z,0.20
2023-05-08T12:51:12.023Z,0.20
2023-05-08T12:52:13.858Z,0.22
2023-05-08T12:53:19.012Z,0.20
2023-05-08T12:54:20.631Z,0.20
2023-05-08T12:55:28.944Z,0.10
2023-05-08T12:56:30.662Z,0.20
2023-05-08T12:57:32.244Z,0.20
2023-05-08T12:58:34.404Z,0.20
2023-05-08T12:59:36.152Z,0.30
2023-05-08T13:00:43.680Z,0.30
2023-05-08T13:01:51.076Z,0.20
2023-05-08T13:02:55.901Z,0.20
2023-05-08T13:04:02.337Z,0.30
2023-05-08T13:05:05.884Z,0.30
2023-05-08T13:06:07.824Z,0.25
2023-05-08T13:07:09.435Z,0.20
2023-05-08T13:08:11.220Z,0.60
2023-05-08T13:09:18.239Z,0.33
2023-05-08T13:10:22.367Z,0.15
2023-05-08T13:11:33.313Z,0.45
2023-05-08T13:12:35.085Z,0.40
2023-05-08T13:13:36.951Z,0.25
2023-05-08T13:14:38.578Z,0.30
2023-05-08T13:15:40.224Z,0.20
2023-05-08T13:16:43.864Z,0.43
2023-05-08T13:17:45.532Z,0.30
2023-05-08T13:18:47.317Z,0.50
2023-05-08T13:19:48.909Z,0.20
2023-05-08T13:20:50.519Z,0.40
2023-05-08T13:21:53.027Z,0.32
2023-05-08T13:22:54.633Z,0.20
2023-05-08T13:23:56.825Z,0.22
2023-05-08T13:24:58.625Z,0.47
2023-05-08T13:26:00.409Z,0.20
2023-05-08T13:27:02.112Z,0.30
2023-05-08T13:28:04.403Z,0.45
2023-05-08T13:29:06.023Z,0.38
2023-05-08T13:30:08.390Z,0.30
2023-05-08T13:31:09.979Z,0.30
2023-05-08T13:32:11.707Z,0.20
2023-05-08T13:33:13.458Z,0.30
2023-05-08T13:34:15.305Z,0.55
2023-05-08T13:35:17.805Z,0.20
2023-05-08T13:36:20.680Z,0.30
2023-05-08T13:37:22.331Z,0.20
2023-05-08T13:38:23.912Z,0.20
2023-05-08T13:39:25.663Z,0.30
2023-05-08T13:40:27.340Z,0.40
2023-05-08T13:41:28.932Z,0.20
2023-05-08T13:42:30.517Z,0.45
2023-05-08T13:43:32.130Z,0.40
2023-05-08T13:44:33.807Z,1.90
2023-05-08T13:45:35.559Z,0.63
2023-05-08T13:46:37.200Z,0.40
2023-05-08T13:47:38.878Z,0.47
2023-05-08T13:48:40.639Z,0.20
2023-05-08T13:49:42.329Z,0.30
2023-05-08T13:50:43.972Z,0.30
2023-05-08T13:51:49.204Z,0.30
2023-05-08T13:52:54.979Z,0.40
2023-05-08T13:53:57.039Z,0.35
2023-05-08T13:54:58.684Z,0.40
2023-05-08T13:56:00.854Z,0.30
2023-05-08T13:57:02.837Z,0.30
2023-05-08T13:58:04.442Z,0.38
2023-05-08T13:59:06.123Z,0.40
2023-05-08T14:00:08.994Z,0.20
2023-05-08T14:01:21.948Z,0.27
2023-05-08T14:02:28.085Z,0.20
2023-05-08T14:03:30.902Z,0.20
2023-05-08T14:04:32.652Z,0.60
2023-05-08T14:05:34.506Z,0.30
2023-05-08T14:06:36.433Z,0.40
2023-05-08T14:07:38.048Z,0.30
2023-05-08T14:08:46.467Z,0.50
2023-05-08T14:09:50.366Z,1.65
2023-05-08T14:10:52.671Z,0.60
2023-05-08T14:11:54.332Z,0.50
2023-05-08T14:12:56.055Z,0.22
2023-05-08T14:13:57.976Z,0.30